createdAt,value
2022-12-16T00:02:39.624Z,63.10
2022-12-16T00:05:22.632Z,68.80
2022-12-16T00:10:55.001Z,61.40
2022-12-16T00:13:42.483Z,66.70
2022-12-16T00:16:25.289Z,63.80
2022-12-16T00:19:08.101Z,71.40
2022-12-16T00:21:51.209Z,72.50
2022-12-16T00:24:34.552Z,73.50
2022-12-16T00:27:17.510Z,75.10
2022-12-16T00:30:00.429Z,77.30
2022-12-16T00:32:43.165Z,75.30
2022-12-16T00:35:25.874Z,75.00
2022-12-16T00:40:52.214Z,74.30
2022-12-16T00:43:36.397Z,75.20
2022-12-16T00:46:19.655Z,78.40
2022-12-16T00:49:02.460Z,75.40
2022-12-16T00:51:45.383Z,78.50
2022-12-16T00:54:28.071Z,79.50
2022-12-16T00:57:10.900Z,78.00
2022-12-16T00:59:53.815Z,88.40
2022-12-16T01:02:38.128Z,81.80
2022-12-16T01:05:26.822Z,80.20
2022-12-16T01:08:09.830Z,78.40
2022-12-16T01:13:39.138Z,74.30
2022-12-16T01:16:22.631Z,81.00
2022-12-16T01:19:05.537Z,84.40
2022-12-16T01:21:48.234Z,84.90
2022-12-16T01:24:31.198Z,84.80
2022-12-16T01:27:15.568Z,81.10
2022-12-16T01:29:58.447Z,82.20
2022-12-16T01:32:41.373Z,81.30
2022-12-16T01:35:52.049Z,85.20
2022-12-16T01:38:27.037Z,77.30
2022-12-16T01:41:11.300Z,73.20
2022-12-16T01:44:16.609Z,74.10
2022-12-16T01:47:05.067Z,69.10
2022-12-16T01:49:54.962Z,76.60
2022-12-16T01:52:43.278Z,70.00
2022-12-16T01:55:34.689Z,71.30
2022-12-16T01:58:27.120Z,70.20
2022-12-16T02:01:10.132Z,67.10
2022-12-16T02:03:56.428Z,72.80
2022-12-16T02:06:39.398Z,67.50
2022-12-16T02:09:22.244Z,70.00
2022-12-16T02:12:17.812Z,67.30
2022-12-16T02:15:17.473Z,67.90
2022-12-16T02:18:17.874Z,66.10
2022-12-16T02:21:19.559Z,64.60
2022-12-16T02:24:26.558Z,62.80
2022-12-16T02:27:12.662Z,62.50
2022-12-16T02:30:20.336Z,56.50
2022-12-16T02:33:09.680Z,64.30
2022-12-16T02:36:29.080Z,62.90
2022-12-16T02:39:41.026Z,61.80
2022-12-16T02:42:31.718Z,63.00
2022-12-16T02:45:25.803Z,60.40
2022-12-16T02:48:08.565Z,61.80
2022-12-16T02:53:38.191Z,59.80
2022-12-16T02:56:38.868Z,60.90
2022-12-16T02:59:32.917Z,63.90
2022-12-16T03:02:49.538Z,59.40
2022-12-16T03:05:43.351Z,62.60
2022-12-16T03:08:35.288Z,61.20
2022-12-16T03:11:18.775Z,62.40
2022-12-16T03:14:03.949Z,61.40
2022-12-16T03:16:47.834Z,58.70
2022-12-16T03:19:31.739Z,65.00
2022-12-16T03:22:36.975Z,67.40
2022-12-16T03:25:22.252Z,69.40
2022-12-16T03:28:17.014Z,67.10
2022-12-16T03:31:35.308Z,64.20
2022-12-16T03:34:59.389Z,70.50
2022-12-16T03:37:44.620Z,64.30
2022-12-16T03:40:28.756Z,68.70
2022-12-16T03:43:17.253Z,72.90
2022-12-16T03:46:06.617Z,69.00
2022-12-16T03:48:51.580Z,66.90
2022-12-16T03:51:34.998Z,65.20
2022-12-16T03:54:19.133Z,64.50
2022-12-16T03:57:02.326Z,67.50
2022-12-16T03:59:45.036Z,68.00
2022-12-16T04:02:27.911Z,62.10
2022-12-16T04:05:11.060Z,64.30
2022-12-16T04:10:59.082Z,58.60
2022-12-16T04:14:00.904Z,63.80
2022-12-16T04:17:02.670Z,63.10
2022-12-16T04:20:05.216Z,62.80
2022-12-16T04:23:06.525Z,58.40
2022-12-16T04:25:49.887Z,63.00
2022-12-16T04:28:32.640Z,60.40
2022-12-16T04:31:15.713Z,62.70
2022-12-16T04:34:17.052Z,65.50
2022-12-16T04:37:21.387Z,59.40
2022-12-16T04:40:23.424Z,68.00
2022-12-16T04:43:24.960Z,61.10
2022-12-16T04:46:26.175Z,63.30
2022-12-16T04:49:27.948Z,61.10
2022-12-16T04:52:29.508Z,60.90
2022-12-16T04:55:31.519Z,56.30
2022-12-16T04:58:32.911Z,57.20
2022-12-16T05:01:34.261Z,61.70
2022-12-16T05:04:35.865Z,62.10
2022-12-16T05:07:38.655Z,55.90
2022-12-16T05:10:43.756Z,61.90
2022-12-16T05:13:45.258Z,59.20
2022-12-16T05:16:46.734Z,59.60
2022-12-16T05:19:48.218Z,60.50
2022-12-16T05:22:50.830Z,60.40
2022-12-16T05:25:53.296Z,58.00
2022-12-16T05:28:54.750Z,62.60
2022-12-16T05:32:06.754Z,56.60
2022-12-16T05:35:08.558Z,60.70
2022-12-16T05:38:09.842Z,59.10
2022-12-16T05:41:11.466Z,60.20
2022-12-16T05:44:12.796Z,55.90
2022-12-16T05:47:14.480Z,54.50
2022-12-16T05:50:15.742Z,54.40
2022-12-16T05:53:17.996Z,51.70
2022-12-16T05:56:19.738Z,56.40
2022-12-16T05:59:21.241Z,58.30
2022-12-16T06:02:23.651Z,58.20
2022-12-16T06:05:26.222Z,54.60
2022-12-16T06:08:27.652Z,57.00
2022-12-16T06:11:29.244Z,59.80
2022-12-16T06:14:30.487Z,58.60
2022-12-16T06:17:32.353Z,59.40
2022-12-16T06:20:34.303Z,62.00
2022-12-16T06:23:37.136Z,61.70
2022-12-16T06:26:39.002Z,60.70
2022-12-16T06:29:40.740Z,61.50
2022-12-16T06:32:42.064Z,63.40
2022-12-16T06:35:43.552Z,56.70
2022-12-16T06:38:44.870Z,63.60
2022-12-16T06:41:46.469Z,63.20
2022-12-16T06:44:49.235Z,59.30
2022-12-16T06:47:50.942Z,57.30
2022-12-16T06:50:55.846Z,61.40
2022-12-16T06:53:57.733Z,65.20
2022-12-16T06:56:59.484Z,65.50
2022-12-16T07:00:01.441Z,68.00
2022-12-16T07:03:03.200Z,66.10
2022-12-16T07:06:05.164Z,59.80
2022-12-16T07:09:06.568Z,60.50
2022-12-16T07:12:08.040Z,58.00
2022-12-16T07:15:09.682Z,56.90
2022-12-16T07:18:11.184Z,54.70
2022-12-16T07:21:12.555Z,53.00
2022-12-16T07:24:13.828Z,51.80
2022-12-16T07:27:15.262Z,51.30
2022-12-16T07:30:16.785Z,51.40
2022-12-16T07:33:18.403Z,52.10
2022-12-16T07:36:20.008Z,51.40
2022-12-16T07:39:21.452Z,55.20
2022-12-16T07:42:23.442Z,57.10
2022-12-16T07:45:26.007Z,51.50
2022-12-16T07:48:27.608Z,55.60
2022-12-16T07:51:28.976Z,52.00
2022-12-16T07:54:30.505Z,57.40
2022-12-16T07:57:31.980Z,53.60
2022-12-16T08:00:33.643Z,54.00
2022-12-16T08:03:35.321Z,55.40
2022-12-16T08:06:40.349Z,51.40
2022-12-16T08:09:42.338Z,53.80
2022-12-16T08:12:43.862Z,54.10
2022-12-16T08:15:45.473Z,53.10
2022-12-16T08:18:47.027Z,63.00
2022-12-16T08:21:48.302Z,62.20
2022-12-16T08:24:53.721Z,59.70
2022-12-16T08:27:57.461Z,62.00
2022-12-16T08:30:59.585Z,66.30
2022-12-16T08:34:00.919Z,62.90
2022-12-16T08:37:02.570Z,64.30
2022-12-16T08:40:33.627Z,63.00
2022-12-16T08:43:25.151Z,57.90
2022-12-16T08:46:26.504Z,59.90
2022-12-16T08:49:28.096Z,62.70
2022-12-16T08:52:31.842Z,61.60
2022-12-16T08:55:33.421Z,60.30
2022-12-16T08:58:34.935Z,54.40
2022-12-16T09:01:36.426Z,54.50
2022-12-16T09:04:38.366Z,55.70
2022-12-16T09:07:39.708Z,55.20
2022-12-16T09:10:41.180Z,55.90
2022-12-16T09:13:42.497Z,60.50
2022-12-16T09:16:43.953Z,53.20
2022-12-16T09:19:45.384Z,55.10
2022-12-16T09:22:47.078Z,56.80
2022-12-16T09:25:48.561Z,55.90
2022-12-16T09:28:50.075Z,54.90
2022-12-16T09:31:51.484Z,55.50
2022-12-16T09:34:53.097Z,54.00
2022-12-16T09:37:54.629Z,53.20
2022-12-16T09:41:01.503Z,51.00
2022-12-16T09:44:21.945Z,54.70
2022-12-16T09:47:53.935Z,54.10
2022-12-16T09:50:59.608Z,53.20
2022-12-16T09:54:03.013Z,57.20
2022-12-16T10:00:16.496Z,52.30
2022-12-16T10:03:20.437Z,53.90
2022-12-16T10:06:37.955Z,52.30
2022-12-16T10:09:39.757Z,53.40
2022-12-16T10:12:52.827Z,54.70
2022-12-16T10:16:28.601Z,57.00
2022-12-16T10:19:48.610Z,53.50
2022-12-16T10:23:08.875Z,54.40
2022-12-16T10:26:23.996Z,55.50
2022-12-16T10:29:34.742Z,51.40
2022-12-16T10:32:55.565Z,55.10
2022-12-16T10:36:11.329Z,56.60
2022-12-16T10:39:19.139Z,54.30
2022-12-16T10:42:22.172Z,55.10
2022-12-16T10:45:30.785Z,54.40
2022-12-16T10:48:34.051Z,54.90
2022-12-16T10:51:40.557Z,57.70
2022-12-16T10:54:49.262Z,57.00
2022-12-16T10:57:56.617Z,57.00
2022-12-16T11:01:10.360Z,55.60
2022-12-16T11:04:11.999Z,52.60
2022-12-16T11:07:13.954Z,54.20
2022-12-16T11:10:18.537Z,55.10
2022-12-16T11:13:35.767Z,57.90
2022-12-16T11:16:46.480Z,56.70
2022-12-16T11:19:56.639Z,59.30
2022-12-16T11:22:57.865Z,51.30
2022-12-16T11:25:59.620Z,60.80
2022-12-16T11:29:01.295Z,51.50
2022-12-16T11:32:03.152Z,55.00
2022-12-16T11:35:18.276Z,57.60
2022-12-16T11:38:25.934Z,54.70
2022-12-16T11:41:41.629Z,53.00
2022-12-16T11:45:02.984Z,59.10
2022-12-16T11:48:17.371Z,56.40
2022-12-16T11:51:21.464Z,53.70
2022-12-16T11:54:22.747Z,54.20
2022-12-16T11:57:35.953Z,58.20
2022-12-16T12:00:38.582Z,57.50
2022-12-16T12:03:58.770Z,57.10
2022-12-16T12:07:21.393Z,57.10
2022-12-16T12:10:46.073Z,54.30
2022-12-16T12:14:06.843Z,57.50
2022-12-16T12:17:26.358Z,55.40
2022-12-16T12:20:28.270Z,56.60
2022-12-16T12:23:30.675Z,60.40
2022-12-16T12:26:41.618Z,60.10
2022-12-16T12:30:16.720Z,62.90
2022-12-16T12:33:37.454Z,54.90
2022-12-16T12:37:35.036Z,57.20
2022-12-16T12:40:45.801Z,56.60
2022-12-16T12:44:20.987Z,54.20
2022-12-16T12:47:27.677Z,54.50
2022-12-16T12:50:49.747Z,51.90
2022-12-16T12:54:05.706Z,54.10
2022-12-16T12:57:12.960Z,54.60
2022-12-16T13:00:23.039Z,55.90
2022-12-16T13:03:46.379Z,57.00
2022-12-16T13:06:48.636Z,60.80
2022-12-16T13:09:52.605Z,52.80
2022-12-16T13:12:55.229Z,54.50
2022-12-16T13:15:58.571Z,50.70
2022-12-16T13:22:05.956Z,50.00
2022-12-16T13:25:09.740Z,53.40
2022-12-16T13:28:15.721Z,51.00
2022-12-16T13:31:25.907Z,51.10
2022-12-16T13:34:34.107Z,50.10
2022-12-16T13:37:54.482Z,50.40
2022-12-16T13:41:20.581Z,55.30
2022-12-16T13:44:22.019Z,52.50
2022-12-16T13:47:54.352Z,51.00
2022-12-16T13:51:03.056Z,53.10
2022-12-16T13:54:11.361Z,49.70
2022-12-16T13:57:14.009Z,53.40
2022-12-16T14:00:18.862Z,56.50
2022-12-16T14:03:23.955Z,63.40
2022-12-16T14:06:35.186Z,59.00
2022-12-16T14:10:02.752Z,56.00
2022-12-16T14:13:23.627Z,51.40
2022-12-16T14:16:37.810Z,51.80
2022-12-16T14:19:58.453Z,53.90
2022-12-16T14:23:46.825Z,56.00
2022-12-16T14:26:38.634Z,59.00
2022-12-16T14:29:44.176Z,52.10
2022-12-16T14:32:52.674Z,55.80
2022-12-16T14:35:54.327Z,55.30
2022-12-16T14:39:08.251Z,54.80
2022-12-16T14:42:10.386Z,56.40
2022-12-16T14:45:11.929Z,54.50
2022-12-16T14:48:14.185Z,54.60
2022-12-16T14:51:16.425Z,56.00
2022-12-16T14:54:35.112Z,60.10
2022-12-16T14:57:40.179Z,56.80
2022-12-16T15:00:43.317Z,59.30
2022-12-16T15:07:01.899Z,57.90
2022-12-16T15:10:07.381Z,60.90
2022-12-16T15:13:09.568Z,60.90
2022-12-16T15:16:11.532Z,60.30
2022-12-16T15:19:20.748Z,60.00
2022-12-16T15:22:22.197Z,63.70
2022-12-16T15:25:24.569Z,62.90
2022-12-16T15:28:58.071Z,63.30
2022-12-16T15:32:03.120Z,63.20
2022-12-16T15:35:06.549Z,61.60
2022-12-16T15:38:08.384Z,65.10
2022-12-16T15:41:10.711Z,59.90
2022-12-16T15:44:20.538Z,70.10
2022-12-16T15:47:22.926Z,66.80
2022-12-16T15:50:25.492Z,68.00
2022-12-16T15:53:59.044Z,70.90
2022-12-16T15:57:04.419Z,63.50
2022-12-16T16:00:18.702Z,63.80
2022-12-16T16:03:23.651Z,58.90
2022-12-16T16:06:44.571Z,68.10
2022-12-16T16:09:49.063Z,64.80
2022-12-16T16:12:51.366Z,68.30
2022-12-16T16:15:52.851Z,67.20
2022-12-16T16:18:54.934Z,67.70
2022-12-16T16:21:56.449Z,64.30
2022-12-16T16:24:57.951Z,67.90
2022-12-16T16:27:59.581Z,66.60
2022-12-16T16:31:01.040Z,65.90
2022-12-16T16:34:02.732Z,68.90
2022-12-16T16:37:15.661Z,70.90
2022-12-16T16:40:17.598Z,70.50
2022-12-16T16:43:19.117Z,73.10
2022-12-16T16:46:20.911Z,67.10
2022-12-16T16:49:22.985Z,72.50
2022-12-16T16:52:28.466Z,78.20
2022-12-16T16:55:38.582Z,68.80
2022-12-16T16:58:46.321Z,70.00
2022-12-16T17:01:47.780Z,68.70
2022-12-16T17:04:49.468Z,66.10
2022-12-16T17:07:53.918Z,68.80
2022-12-16T17:10:56.202Z,66.40
2022-12-16T17:13:57.640Z,67.70
2022-12-16T17:16:59.560Z,69.20
2022-12-16T17:20:01.260Z,68.90
2022-12-16T17:23:02.976Z,70.40
2022-12-16T17:26:05.120Z,74.00
2022-12-16T17:29:06.776Z,73.20
2022-12-16T17:32:08.510Z,68.10
2022-12-16T17:35:10.712Z,75.70
2022-12-16T17:38:12.431Z,69.10
2022-12-16T17:41:14.381Z,66.90
2022-12-16T17:44:15.966Z,65.80
2022-12-16T17:47:17.353Z,72.30
2022-12-16T17:50:19.517Z,69.20
2022-12-16T17:53:21.254Z,71.20
2022-12-16T17:56:23.724Z,66.20
2022-12-16T17:59:25.525Z,68.90
2022-12-16T18:02:31.748Z,70.40
2022-12-16T18:05:41.105Z,64.10
2022-12-16T18:08:43.999Z,68.70
2022-12-16T18:11:45.455Z,71.00
2022-12-16T18:14:47.499Z,66.70
2022-12-16T18:17:49.099Z,72.10
2022-12-16T18:20:50.782Z,66.30
2022-12-16T18:23:52.523Z,68.80
2022-12-16T18:26:53.732Z,70.10
2022-12-16T18:29:55.363Z,67.50
2022-12-16T18:32:58.117Z,71.80
2022-12-16T18:35:59.662Z,68.20
2022-12-16T18:39:01.312Z,63.80
2022-12-16T18:42:04.957Z,64.20
2022-12-16T18:45:09.698Z,67.00
2022-12-16T18:48:11.460Z,69.50
2022-12-16T18:51:18.624Z,68.70
2022-12-16T18:54:20.210Z,66.20
2022-12-16T18:57:21.540Z,60.00
2022-12-16T19:00:23.920Z,66.10
2022-12-16T19:03:25.855Z,58.60
2022-12-16T19:06:27.692Z,61.80
2022-12-16T19:09:29.173Z,58.50
2022-12-16T19:12:31.176Z,59.00
2022-12-16T19:15:35.498Z,62.10
2022-12-16T19:18:41.056Z,56.60
2022-12-16T19:21:45.648Z,56.90
2022-12-16T19:24:49.987Z,56.20
2022-12-16T19:27:52.118Z,56.00
2022-12-16T19:31:10.752Z,51.30
2022-12-16T19:34:13.748Z,52.80
2022-12-16T19:37:15.062Z,55.50
2022-12-16T19:40:16.498Z,51.30
2022-12-16T19:43:22.230Z,55.20
2022-12-16T19:46:24.125Z,51.70
2022-12-16T19:49:25.459Z,54.20
2022-12-16T19:52:27.356Z,55.90
2022-12-16T19:55:28.804Z,55.20
2022-12-16T19:58:30.669Z,56.30
2022-12-16T20:01:32.124Z,52.00
2022-12-16T20:04:33.896Z,52.70
2022-12-16T20:07:35.804Z,52.50
2022-12-16T20:10:37.483Z,51.20
2022-12-16T20:13:39.153Z,53.90
2022-12-16T20:16:40.597Z,56.30
2022-12-16T20:19:42.160Z,52.20
2022-12-16T20:22:43.667Z,51.70
2022-12-16T20:25:45.854Z,54.50
2022-12-16T20:28:48.693Z,48.70
2022-12-16T20:31:51.370Z,50.60
2022-12-16T20:34:53.268Z,52.20
2022-12-16T20:41:17.604Z,47.40
2022-12-16T20:44:32.822Z,44.00
2022-12-16T20:47:34.256Z,44.30
2022-12-16T20:50:35.597Z,41.70
2022-12-16T20:53:37.323Z,39.90
2022-12-16T20:56:39.591Z,40.80
2022-12-16T20:59:40.963Z,44.10
2022-12-16T21:02:42.612Z,41.40
2022-12-16T21:05:43.896Z,40.90
2022-12-16T21:08:46.380Z,43.90
2022-12-16T21:11:47.975Z,42.40
2022-12-16T21:14:42.582Z,48.00
2022-12-16T21:14:49.630Z,44.10
2022-12-16T21:17:51.307Z,45.50
2022-12-16T21:20:53.342Z,45.00
2022-12-16T21:23:57.739Z,43.20
2022-12-16T21:26:59.290Z,43.80
2022-12-16T21:30:00.593Z,44.80
2022-12-16T21:33:04.712Z,43.90
2022-12-16T21:36:13.201Z,43.30
2022-12-16T21:39:14.652Z,45.20
2022-12-16T21:42:15.993Z,43.00
2022-12-16T21:45:17.458Z,47.70
2022-12-16T21:48:18.785Z,46.90
2022-12-16T21:51:20.336Z,48.90
2022-12-16T21:54:22.339Z,47.20
2022-12-16T21:57:23.856Z,45.50
2022-12-16T22:00:26.446Z,39.00
2022-12-16T22:03:28.111Z,47.20
2022-12-16T22:06:29.601Z,45.10
2022-12-16T22:09:31.409Z,40.90
2022-12-16T22:12:32.729Z,47.70
2022-12-16T22:15:34.168Z,42.60
2022-12-16T22:18:37.010Z,46.20
2022-12-16T22:21:38.647Z,43.30
2022-12-16T22:24:40.197Z,40.40
2022-12-16T22:27:41.580Z,43.10
2022-12-16T22:30:43.091Z,48.00
2022-12-16T22:33:44.605Z,43.30
2022-12-16T22:36:46.136Z,46.40
2022-12-16T22:39:47.755Z,43.80
2022-12-16T22:42:49.112Z,45.50
2022-12-16T22:45:51.831Z,43.30
2022-12-16T22:48:53.258Z,44.30
2022-12-16T22:51:57.720Z,42.90
2022-12-16T22:54:59.275Z,40.90
2022-12-16T22:58:00.602Z,42.90
2022-12-16T23:01:02.248Z,44.80
2022-12-16T23:04:04.476Z,43.40
2022-12-16T23:07:05.928Z,43.80
2022-12-16T23:10:07.468Z,47.00
2022-12-16T23:13:09.158Z,44.70
2022-12-16T23:16:10.810Z,42.60
2022-12-16T23:19:12.697Z,51.70
2022-12-16T23:22:14.631Z,46.70
2022-12-16T23:25:16.059Z,40.30
2022-12-16T23:28:17.533Z,42.20
2022-12-16T23:31:39.064Z,40.60
2022-12-16T23:34:54.676Z,40.90
2022-12-16T23:37:57.342Z,45.20
2022-12-16T23:40:59.820Z,45.70
2022-12-16T23:44:01.867Z,41.60
2022-12-16T23:47:03.698Z,44.50
2022-12-16T23:50:05.344Z,38.40
2022-12-16T23:53:07.663Z,39.70
2022-12-16T23:56:09.442Z,42.10
2022-12-16T23:59:11.083Z,36.90
